sensor_id;sensor_type;location;lat;lon;timestamp;pressure;altitude;pressure_sealevel;temperature;humidity
31162;BME280;17796;49.296;-117.656;2023-02-11T00:10:00;96700;;;6.3376;46.45305
31162;BME280;17796;49.296;-117.656;2023-02-11T00:25:04;96700;;;5.0136;50.3951
31162;BME280;17796;49.296;-117.656;2023-02-11T00:40:09;96700;;;4.77764;52.40285
31162;BME280;17796;49.296;-117.656;2023-02-11T00:55:13;96800;;;3.87984;54.62007
31162;BME280;17796;49.296;-117.656;2023-02-11T01:10:18;96800;;;3.72042;54.19776
31162;BME280;17796;49.296;-117.656;2023-02-11T01:25:22;96800;;;3.1707;56.80694
31162;BME280;17796;49.296;-117.656;2023-02-11T01:40:31;96800;;;2.18591;61.10633
31162;BME280;17796;49.296;-117.656;2023-02-11T01:55:34;96800;;;2.35041;58.4326
31162;BME280;17796;49.296;-117.656;2023-02-11T02:10:39;96800;;;2.10302;58.24932
31162;BME280;17796;49.296;-117.656;2023-02-11T02:25:49;96800;;;1.61746;60.84337
31162;BME280;17796;49.296;-117.656;2023-02-11T02:41:48;96800;;;1.6092;59.57011
31162;BME280;17796;49.296;-117.656;2023-02-11T02:56:55;96800;;;0.05091;64.8762
31162;BME280;17796;49.296;-117.656;2023-02-11T03:12:10;96900;;;1.01631;61.50325
31162;BME280;17796;49.296;-117.656;2023-02-11T03:27:16;96900;;;0.61713;62.49141
31162;BME280;17796;49.296;-117.656;2023-02-11T03:42:23;96900;;;0.84101;61.53173
31162;BME280;17796;49.296;-117.656;2023-02-11T03:57:31;96900;;;0.55997;61.83431
31162;BME280;17796;49.296;-117.656;2023-02-11T04:12:35;96900;;;-0.50577;65.43648
31162;BME280;17796;49.296;-117.656;2023-02-11T04:27:39;96900;;;-0.99577;66.52981
31162;BME280;17796;49.296;-117.656;2023-02-11T04:42:43;96900;;;-1.80522;69.36347
31162;BME280;17796;49.296;-117.656;2023-02-11T04:57:48;96900;;;-0.91765;66.66665
31162;BME280;17796;49.296;-117.656;2023-02-11T05:12:51;96900;;;-0.81603;66.19783
31162;BME280;17796;49.296;-117.656;2023-02-11T05:27:55;96900;;;-2.22916;74.03259
31162;BME280;17796;49.296;-117.656;2023-02-11T05:42:58;97000;;;-2.40699;73.50592
31162;BME280;17796;49.296;-117.656;2023-02-11T05:58:02;97000;;;-1.32952;67.15091
31162;BME280;17796;49.296;-117.656;2023-02-11T06:13:07;97000;;;-1.12406;66.2804
31162;BME280;17796;49.296;-117.656;2023-02-11T06:28:11;97000;;;-1.52641;69.96849
31162;BME280;17796;49.296;-117.656;2023-02-11T06:43:15;97000;;;-2.49971;71.07277
31162;BME280;17796;49.296;-117.656;2023-02-11T06:58:19;97000;;;-1.82809;69.35626
31162;BME280;17796;49.296;-117.656;2023-02-11T07:13:22;97000;;;-1.84206;68.48297
31162;BME280;17796;49.296;-117.656;2023-02-11T07:28:26;97000;;;-1.97384;67.24655
31162;BME280;17796;49.296;-117.656;2023-02-11T07:43:30;97000;;;-2.62102;70.70399
31162;BME280;17796;49.296;-117.656;2023-02-11T07:58:34;97000;;;-3.29963;74.22555
31162;BME280;17796;49.296;-117.656;2023-02-11T08:13:38;97000;;;-2.26377;68.45136
31162;BME280;17796;49.296;-117.656;2023-02-11T08:28:43;97000;;;-3.2231;70.69887
31162;BME280;17796;49.296;-117.656;2023-02-11T08:43:47;97000;;;-3.74864;74.59181
31162;BME280;17796;49.296;-117.656;2023-02-11T08:58:52;97000;;;-3.02939;72.63188
31162;BME280;17796;49.296;-117.656;2023-02-11T09:13:55;97000;;;-2.97541;71.81091
31162;BME280;17796;49.296;-117.656;2023-02-11T09:28:59;97000;;;-3.23231;71.02394
31162;BME280;17796;49.296;-117.656;2023-02-11T09:44:05;97100;;;-2.92841;69.32575
31162;BME280;17796;49.296;-117.656;2023-02-11T09:59:17;97100;;;-2.91666;75.11732
31162;BME280;17796;49.296;-117.656;2023-02-11T10:14:27;97100;;;-3.09639;70.14954
31162;BME280;17796;49.296;-117.656;2023-02-11T10:29:48;97100;;;-3.1037;70.5021
31162;BME280;17796;49.296;-117.656;2023-02-11T10:44:57;97100;;;-5.2157;86.35319
31162;BME280;17796;49.296;-117.656;2023-02-11T11:00:07;97100;;;-3.55367;73.92641
31162;BME280;17796;49.296;-117.656;2023-02-11T11:15:28;97100;;;-4.29133;77.28484
31162;BME280;17796;49.296;-117.656;2023-02-11T11:30:37;97100;;;-3.71212;73.90152
31162;BME280;17796;49.296;-117.656;2023-02-11T11:45:52;97100;;;-3.50984;73.57244
31162;BME280;17796;49.296;-117.656;2023-02-11T12:01:00;97100;;;-3.65274;72.4973
31162;BME280;17796;49.296;-117.656;2023-02-11T12:16:19;97100;;;-3.6302;71.81592
31162;BME280;17796;49.296;-117.656;2023-02-11T12:31:38;97100;;;-3.61082;75.222
31162;BME280;17796;49.296;-117.656;2023-02-11T12:46:54;97100;;;-3.56637;73.28012
31162;BME280;17796;49.296;-117.656;2023-02-11T13:02:10;97100;;;-4.9912;81.83925
31162;BME280;17796;49.296;-117.656;2023-02-11T13:17:21;97100;;;-4.42502;83.05517
31162;BME280;17796;49.296;-117.656;2023-02-11T13:33:00;97100;;;-4.19575;82.01152
31162;BME280;17796;49.296;-117.656;2023-02-11T13:48:19;97100;;;-4.54187;84.18013
31162;BME280;17796;49.296;-117.656;2023-02-11T14:03:27;97100;;;-3.92583;76.77912
31162;BME280;17796;49.296;-117.656;2023-02-11T14:18:36;97200;;;-3.74896;76.74188
31162;BME280;17796;49.296;-117.656;2023-02-11T14:34:03;97200;;;-5.01438;81.62654
31162;BME280;17796;49.296;-117.656;2023-02-11T14:49:22;97200;;;-3.99157;77.50324
31162;BME280;17796;49.296;-117.656;2023-02-11T15:04:29;97200;;;-4.53806;81.05176
31162;BME280;17796;49.296;-117.656;2023-02-11T15:19:35;97200;;;-4.57014;81.44769
31162;BME280;17796;49.296;-117.656;2023-02-11T15:34:41;97200;;;-5.51102;81.70224
31162;BME280;17796;49.296;-117.656;2023-02-11T15:49:46;97200;;;-4.56251;79.15439
31162;BME280;17796;49.296;-117.656;2023-02-11T16:04:51;97200;;;-4.6708;79.60762
31162;BME280;17796;49.296;-117.656;2023-02-11T16:19:57;97200;;;-4.97374;83.85644
31162;BME280;17796;49.296;-117.656;2023-02-11T16:35:03;97200;;;-5.21348;83.47403
31162;BME280;17796;49.296;-117.656;2023-02-11T16:50:17;97200;;;-3.83438;77.37782
31162;BME280;17796;49.296;-117.656;2023-02-11T17:05:24;97200;;;-3.61051;77.59443
31162;BME280;17796;49.296;-117.656;2023-02-11T17:20:28;97200;;;-2.67913;75.00317
31162;BME280;17796;49.296;-117.656;2023-02-11T17:35:32;97200;;;-3.13259;76.04684
31162;BME280;17796;49.296;-117.656;2023-02-11T17:50:36;97200;;;-3.2123;77.58978
31162;BME280;17796;49.296;-117.656;2023-02-11T18:05:39;97200;;;-2.20471;76.78542
31162;BME280;17796;49.296;-117.656;2023-02-11T18:20:43;97200;;;-1.30507;74.23915
31162;BME280;17796;49.296;-117.656;2023-02-11T18:35:46;97200;;;-1.51021;74.44441
31162;BME280;17796;49.296;-117.656;2023-02-11T18:50:50;97100;;;0.11696;71.48119
31162;BME280;17796;49.296;-117.656;2023-02-11T19:05:54;97100;;;-0.3489;71.32875
31162;BME280;17796;49.296;-117.656;2023-02-11T19:20:57;97100;;;0.53424;69.83826
31162;BME280;17796;49.296;-117.656;2023-02-11T19:36:02;97100;;;1.78164;66.35907
31162;BME280;17796;49.296;-117.656;2023-02-11T19:51:08;97000;;;2.17003;64.56205
31162;BME280;17796;49.296;-117.656;2023-02-11T20:06:13;97000;;;2.52476;62.60421
31162;BME280;17796;49.296;-117.656;2023-02-11T20:21:19;97000;;;3.04113;62.57924
31162;BME280;17796;49.296;-117.656;2023-02-11T20:36:25;97000;;;3.45461;58.88524
31162;BME280;17796;49.296;-117.656;2023-02-11T20:51:30;97000;;;4.6017;56.93751
31162;BME280;17796;49.296;-117.656;2023-02-11T21:06:36;96900;;;4.37876;55.88936
31162;BME280;17796;49.296;-117.656;2023-02-11T21:21:41;96900;;;4.9342;54.12197
31162;BME280;17796;49.296;-117.656;2023-02-11T21:36:45;96900;;;5.10411;53.73882
31162;BME280;17796;49.296;-117.656;2023-02-11T21:51:49;96900;;;5.24829;52.2684
31162;BME280;17796;49.296;-117.656;2023-02-11T22:22:05;96900;;;5.42487;50.91996
31162;BME280;17796;49.296;-117.656;2023-02-11T22:37:09;96900;;;5.7669;49.2841
31162;BME280;17796;49.296;-117.656;2023-02-11T22:52:12;96900;;;5.92696;49.85779
31162;BME280;17796;49.296;-117.656;2023-02-11T23:07:16;96900;;;5.97682;48.51888
31162;BME280;17796;49.296;-117.656;2023-02-11T23:22:20;96900;;;5.86726;50.87749
31162;BME280;17796;49.296;-117.656;2023-02-11T23:37:26;96900;;;5.27814;50.83194
31162;BME280;17796;49.296;-117.656;2023-02-11T23:52:29;96900;;;5.35976;51.30256
